Terminal Aerodrome Forecast
Issued by NWS

Current Version | Previous Version | Text Only | Print | Product List | Glossary Off
Versions: 1 2 3 4 5 6 7 8 9 10 11 12 13 14 15 16 17 18 19 20 21 22 23 24 25 26 27 28 29 30 31 32 33 34 35 36 37 38 39 40

580
FTUS41 KRNK 292335
TAFLWB
TAF
KLWB 292335Z 3000/3024 00000KT P6SM SCT060
     FM300800 00000KT 2SM BR SCT050
     FM301000 00000KT 1/4SM FG OVC001
     FM301300 VRB03KT P6SM SCT035=

USA.gov is the U.S. government's official web portal to all federal, state and local government web resources and services.